Menden-Barge Airfield

DE-0205 · North Rhine-Westphalia, 德国

罗盘
风向 的 风向 的 风向 到 风向 040°
风: 4 kt, 2 beaufort

添加一条跑道以查看侧风和逆风信息。

添置 跑道
0 ft 1.000 2.000 3.000 4.000 5.000
Cloud Cloud Cloud Cloud Cloud Cloud Cloud Cloud
OVC 1.900
METAR EDLW 280550Z 04004KT 010V090 9999 OVC019 M00/M04 Q1028

METAR Menden-Barge Airfield - DE-0205

Menden-Barge Airfield是,德国中的小机场。 视场标高为750 ft。 该领域的国际民航组织标志是DE-0205.

这份报告是针对2023年1月28日 06:50, 当地时间在Dortmund Airport进行的。

机场观察

风向为040°,速度为4 kt。 风向在010°和090°之间变化。

可见度为10 km 或者更多。

有乌云密布在1.900 ft的高度。 破损或更高的上限为1.900 ft。

温度为0 °C,阵风为-4 °C。 露点为-4 °C,相对湿度为75%。 海平面上的气压为1028 hPa (QNH)。

白天

今天,太阳从08:12升起,在17:10降落。 这适用于Menden-Barge Airfield,世界夏令时可能有所不同。 当地时间与世界标准时间之间的时差为+1 小时。 当前,没有夏令时有效。

公司介绍

我们没有关于这个机场的公司信息。

体会

到Vliegles.nl去找飞行课程,跳伞和其他飞行体验。 浏览页面,了解Menden-Barge Airfield附近所有可用的活动。 你也可以使用搜索功能来寻找你所在地附近的特定飞行课程、跳伞或其他飞行体验。

乌云

1.900 ft OVC 乌云密布

温度 & 天气

温度 0 °C
露点 -4 °C
相对湿度 75%
风寒 -4 °C
Kp-index 0 (0-9)

白天

日出
08:13 (44m)
中午
12:42
日落
17:11

小工具

你想在你的网站上有一个关于Menden-Barge Airfield的当前航空天气(METAR)的小部件吗?

显示HTML代码

我们和第三方通过cookies跟踪您在我们网站上的互联网行为。如果你继续,我们认为你同意我们的饼干政策